Time;durP1;ratioP1;P1;durP2;ratioP2;P2;SDS_P1;SDS_P2;PMS_P1;PMS_P2;Temp;Humidity;BMP_temperature;BMP_pressure;BME280_temperature;BME280_humidity;BME280_pressure;Samples;Min_cycle;Max_cycle;Signal;HPM_P1;HPM_P2
2023/11/27 00:00:48;;;;;;;62.10;42.00;;;5.20;99.90;;;;;;7373440;19;20019;-62
2023/11/27 00:03:15;;;;;;;60.45;41.78;;;5.10;99.90;;;;;;7374387;19;20046;-61
2023/11/27 00:05:42;;;;;;;63.00;43.15;;;5.20;99.90;;;;;;7373927;19;20363;-61
2023/11/27 00:08:09;;;;;;;66.22;44.80;;;5.20;99.90;;;;;;7372892;19;20014;-59
2023/11/27 00:10:35;;;;;;;61.97;43.38;;;5.20;99.90;;;;;;7373673;19;20052;-62
2023/11/27 00:13:01;;;;;;;57.72;44.75;;;5.20;99.90;;;;;;7374365;19;20019;-62
2023/11/27 00:15:27;;;;;;;63.65;44.20;;;5.20;99.90;;;;;;7376628;19;20065;-62
2023/11/27 00:17:54;;;;;;;57.53;44.22;;;5.20;99.90;;;;;;7371584;19;20050;-61
2023/11/27 00:20:20;;;;;;;64.90;44.95;;;5.20;99.90;;;;;;7373972;19;20019;-62
2023/11/27 00:22:47;;;;;;;64.72;48.25;;;5.20;99.90;;;;;;7373290;19;20022;-62
2023/11/27 00:25:13;;;;;;;63.70;48.42;;;5.30;99.90;;;;;;7374148;19;20434;-60
2023/11/27 00:27:42;;;;;;;62.20;46.10;;;5.30;99.90;;;;;;7371542;19;20006;-62
2023/11/27 00:30:09;;;;;;;65.28;47.28;;;5.30;99.90;;;;;;7377259;19;20011;-61
2023/11/27 00:32:35;;;;;;;65.60;48.63;;;5.30;99.90;;;;;;7374080;19;20138;-62
2023/11/27 00:35:02;;;;;;;65.95;49.13;;;5.30;99.90;;;;;;7377049;19;20022;-62
2023/11/27 00:37:30;;;;;;;62.80;49.15;;;5.40;99.90;;;;;;7373936;19;20019;-61
2023/11/27 00:39:56;;;;;;;71.85;48.53;;;5.30;99.90;;;;;;7372934;19;20355;-62
2023/11/27 00:42:22;;;;;;;64.47;47.92;;;5.40;99.90;;;;;;7372898;19;20022;-62
2023/11/27 00:44:49;;;;;;;67.68;49.17;;;5.40;99.90;;;;;;7373842;19;20022;-61
2023/11/27 00:47:15;;;;;;;65.82;49.03;;;5.40;99.90;;;;;;7373210;19;20452;-62
2023/11/27 00:49:42;;;;;;;63.08;47.45;;;5.40;99.90;;;;;;7373327;19;20022;-61
2023/11/27 00:52:08;;;;;;;64.55;48.50;;;5.40;99.90;;;;;;7372277;19;20026;-62
2023/11/27 00:54:36;;;;;;;69.68;49.42;;;5.30;99.90;;;;;;7369012;19;20025;-62
2023/11/27 00:57:02;;;;;;;68.28;49.63;;;5.30;99.90;;;;;;7371296;19;20019;-59
2023/11/27 00:59:31;;;;;;;64.78;47.67;;;5.30;99.90;;;;;;7373413;19;20014;-59
2023/11/27 01:01:58;;;;;;;68.35;51.15;;;5.30;99.90;;;;;;7369875;19;20466;-63
2023/11/27 01:04:24;;;;;;;71.68;51.65;;;5.30;99.90;;;;;;7374774;19;20693;-58
2023/11/27 01:06:52;;;;;;;68.15;49.22;;;5.30;99.90;;;;;;7373533;19;20015;-59
2023/11/27 01:09:21;;;;;;;71.07;50.42;;;5.30;99.90;;;;;;7371102;19;20498;-62
2023/11/27 01:11:47;;;;;;;74.97;50.30;;;5.30;99.90;;;;;;7373249;19;20011;-61
2023/11/27 01:14:15;;;;;;;75.18;51.58;;;5.30;99.90;;;;;;7371925;19;20018;-62
2023/11/27 01:16:41;;;;;;;74.85;51.88;;;5.30;99.90;;;;;;7374919;19;20057;-61
2023/11/27 01:19:08;;;;;;;71.90;49.88;;;5.30;99.90;;;;;;7371863;19;20018;-62
2023/11/27 01:21:36;;;;;;;70.82;48.95;;;5.30;99.90;;;;;;7373915;19;20042;-58
2023/11/27 01:24:05;;;;;;;77.43;51.45;;;5.30;99.90;;;;;;7374228;19;20014;-58
2023/11/27 01:26:33;;;;;;;75.35;50.25;;;5.30;99.90;;;;;;7369210;19;20018;-58
2023/11/27 01:28:59;;;;;;;82.60;52.05;;;5.30;99.90;;;;;;7367802;19;20018;-58
2023/11/27 01:31:25;;;;;;;77.22;50.65;;;5.30;99.90;;;;;;7375112;19;20018;-58
2023/11/27 01:33:52;;;;;;;78.05;50.67;;;5.20;99.90;;;;;;7375051;19;20015;-58
2023/11/27 01:36:23;;;;;;;80.88;50.13;;;5.20;99.90;;;;;;7374772;19;20022;-58
2023/11/27 01:38:50;;;;;;;79.68;50.13;;;5.30;99.90;;;;;;7369311;19;20115;-58
2023/11/27 01:41:17;;;;;;;72.75;50.70;;;5.20;99.90;;;;;;7371258;19;20511;-61
2023/11/27 01:43:45;;;;;;;75.65;50.53;;;5.20;99.90;;;;;;7370250;19;20014;-61
2023/11/27 01:46:26;;;;;;;72.15;48.22;;;5.20;99.90;;;;;;7372786;19;20023;-61
2023/11/27 01:48:57;;;;;;;78.55;48.30;;;5.20;99.90;;;;;;7374458;19;20638;-61
2023/11/27 01:51:28;;;;;;;79.72;48.20;;;5.20;99.90;;;;;;7366367;19;20026;-61
2023/11/27 01:53:58;;;;;;;82.93;50.63;;;5.20;99.90;;;;;;7372139;19;20021;-61
2023/11/27 01:56:26;;;;;;;84.22;50.85;;;5.20;99.90;;;;;;7370463;19;20474;-61
2023/11/27 01:58:55;;;;;;;83.35;52.92;;;5.20;99.90;;;;;;7371026;19;20736;-61
2023/11/27 02:01:23;;;;;;;78.45;52.33;;;5.20;99.90;;;;;;7373410;19;20026;-61
2023/11/27 02:03:52;;;;;;;79.30;49.80;;;5.10;99.90;;;;;;7373453;19;20022;-60
2023/11/27 02:06:18;;;;;;;79.78;50.00;;;5.10;99.90;;;;;;7366307;19;20412;-60
2023/11/27 02:08:45;;;;;;;78.82;50.17;;;5.10;99.90;;;;;;7373958;19;20727;-60
2023/11/27 02:11:18;;;;;;;81.32;50.13;;;5.10;99.90;;;;;;7370679;19;20019;-60
2023/11/27 02:13:45;;;;;;;88.03;52.90;;;5.10;99.90;;;;;;7373365;19;20336;-60
2023/11/27 02:16:19;;;;;;;80.38;50.85;;;5.10;99.90;;;;;;7370664;19;20130;-60
2023/11/27 02:18:45;;;;;;;78.95;49.38;;;5.10;99.90;;;;;;7369786;19;20360;-60
2023/11/27 02:21:17;;;;;;;72.28;47.67;;;5.10;99.90;;;;;;7355811;19;20062;-60
2023/11/27 02:23:43;;;;;;;79.65;50.03;;;5.10;99.90;;;;;;7374172;19;20378;-60
2023/11/27 02:26:09;;;;;;;78.57;50.13;;;5.10;99.90;;;;;;7371569;19;20369;-60
2023/11/27 02:28:36;;;;;;;77.47;47.20;;;5.10;99.90;;;;;;7372573;19;20021;-58
2023/11/27 02:31:04;;;;;;;72.53;46.97;;;5.10;99.90;;;;;;7368811;19;20518;-57
2023/11/27 02:33:31;;;;;;;74.97;46.63;;;5.10;99.90;;;;;;7370121;19;20454;-58
2023/11/27 02:35:58;;;;;;;72.35;46.55;;;5.10;99.90;;;;;;7369961;19;20766;-58
2023/11/27 02:38:24;;;;;;;70.20;46.47;;;5.10;99.90;;;;;;7362372;19;20265;-58
2023/11/27 02:40:51;;;;;;;68.05;45.25;;;5.10;99.90;;;;;;7370450;19;20074;-60
2023/11/27 02:43:18;;;;;;;66.75;46.10;;;5.00;99.90;;;;;;7372941;19;20022;-61
2023/11/27 02:45:44;;;;;;;67.22;45.63;;;5.10;99.90;;;;;;7375898;19;20022;-60
2023/11/27 02:48:12;;;;;;;66.65;45.45;;;5.10;99.90;;;;;;7375181;19;21015;-60
2023/11/27 02:50:38;;;;;;;58.92;41.53;;;5.00;99.90;;;;;;7378187;19;20029;-60
2023/11/27 02:53:05;;;;;;;62.10;43.55;;;5.00;99.90;;;;;;7377049;19;20018;-58
2023/11/27 02:55:31;;;;;;;64.45;42.47;;;5.10;99.90;;;;;;7375981;19;20018;-58
2023/11/27 02:57:57;;;;;;;59.28;41.47;;;5.00;99.90;;;;;;7373692;19;20673;-58
2023/11/27 03:00:23;;;;;;;54.03;39.25;;;5.00;99.90;;;;;;7378370;19;20110;-58
2023/11/27 03:02:50;;;;;;;52.75;38.08;;;5.00;99.90;;;;;;7373874;19;20531;-58
2023/11/27 03:05:16;;;;;;;58.22;37.90;;;5.00;99.90;;;;;;7375238;19;20010;-58
2023/11/27 03:07:43;;;;;;;54.28;38.13;;;5.00;99.90;;;;;;7377713;19;20667;-58
2023/11/27 03:10:13;;;;;;;58.25;39.15;;;5.00;99.90;;;;;;7375617;19;22061;-57
2023/11/27 03:12:39;;;;;;;55.90;38.78;;;4.90;99.90;;;;;;7375134;19;20017;-58
2023/11/27 03:15:06;;;;;;;49.20;37.90;;;4.90;99.90;;;;;;7368103;19;20011;-57
2023/11/27 03:17:33;;;;;;;53.67;37.42;;;4.90;99.90;;;;;;7374919;19;20019;-58
2023/11/27 03:19:59;;;;;;;59.70;38.25;;;4.90;99.90;;;;;;7375010;19;20049;-57
2023/11/27 03:22:25;;;;;;;53.20;36.33;;;4.90;99.90;;;;;;7373957;19;20006;-57
2023/11/27 03:24:52;;;;;;;50.60;36.55;;;4.90;99.90;;;;;;7375020;19;20018;-58
2023/11/27 03:27:18;;;;;;;51.88;36.95;;;4.90;99.90;;;;;;7374274;19;20017;-58
2023/11/27 03:29:44;;;;;;;44.70;30.92;;;4.90;99.90;;;;;;7374319;19;20110;-58
2023/11/27 03:32:10;;;;;;;55.65;38.05;;;4.90;99.90;;;;;;7374525;19;20030;-58
2023/11/27 03:34:37;;;;;;;43.45;32.10;;;4.90;99.90;;;;;;7376960;19;20371;-58
2023/11/27 03:37:04;;;;;;;51.67;37.08;;;4.90;99.90;;;;;;7372580;19;20106;-58
2023/11/27 03:39:30;;;;;;;35.25;26.80;;;4.80;99.90;;;;;;7378773;19;20018;-60
2023/11/27 03:41:56;;;;;;;40.47;31.00;;;4.80;99.90;;;;;;7376102;19;20018;-60
2023/11/27 03:44:22;;;;;;;47.33;32.75;;;4.80;99.90;;;;;;7377135;19;20018;-58
2023/11/27 03:46:49;;;;;;;41.13;30.95;;;4.80;99.90;;;;;;7371555;19;20427;-58
2023/11/27 03:49:16;;;;;;;44.30;31.58;;;4.80;99.90;;;;;;7378309;19;20014;-58
2023/11/27 03:51:43;;;;;;;36.42;27.20;;;4.70;99.90;;;;;;7373061;19;20028;-59
2023/11/27 03:54:14;;;;;;;39.63;30.05;;;4.70;99.90;;;;;;7378407;19;20101;-57
2023/11/27 03:56:41;;;;;;;44.13;29.80;;;4.70;99.90;;;;;;7373638;19;20038;-58
2023/11/27 03:59:08;;;;;;;39.58;28.70;;;4.70;99.90;;;;;;7372656;19;20274;-58
2023/11/27 04:01:35;;;;;;;40.08;30.13;;;4.70;99.90;;;;;;7376527;19;20478;-58
2023/11/27 04:04:01;;;;;;;37.63;28.20;;;4.70;99.90;;;;;;7379017;19;20018;-60
2023/11/27 04:06:31;;;;;;;42.47;29.98;;;4.70;99.90;;;;;;7374476;19;20068;-60
2023/11/27 04:08:59;;;;;;;43.85;29.75;;;4.70;99.90;;;;;;7377853;19;20494;-60
2023/11/27 04:11:27;;;;;;;40.28;27.70;;;4.70;99.90;;;;;;7375444;19;20013;-60
2023/11/27 04:13:57;;;;;;;42.33;28.60;;;4.70;99.90;;;;;;7376628;19;20051;-60
2023/11/27 04:16:24;;;;;;;45.00;29.42;;;4.70;99.90;;;;;;7373430;19;20050;-60
2023/11/27 04:18:51;;;;;;;40.08;28.40;;;4.70;99.90;;;;;;7371879;19;20019;-59
2023/11/27 04:21:18;;;;;;;42.28;29.83;;;4.70;99.90;;;;;;7369893;19;20014;-60
2023/11/27 04:23:46;;;;;;;39.35;29.23;;;4.70;99.90;;;;;;7376131;19;20019;-60
2023/11/27 04:26:14;;;;;;;37.88;27.67;;;4.70;99.90;;;;;;7374276;19;20022;-59
2023/11/27 04:28:44;;;;;;;35.42;26.60;;;4.70;99.90;;;;;;7372399;19;20018;-57
2023/11/27 04:31:10;;;;;;;38.70;28.20;;;4.70;99.90;;;;;;7371578;19;20018;-58
2023/11/27 04:33:37;;;;;;;35.83;26.10;;;4.70;99.90;;;;;;7373752;19;20115;-62
2023/11/27 04:36:05;;;;;;;35.20;26.80;;;4.70;99.90;;;;;;7372832;19;20025;-59
2023/11/27 04:38:31;;;;;;;38.92;26.88;;;4.70;99.90;;;;;;7373139;19;20045;-58
2023/11/27 04:40:57;;;;;;;30.60;24.20;;;4.60;99.90;;;;;;7374860;19;20026;-57
2023/11/27 04:43:24;;;;;;;35.33;24.50;;;4.60;99.90;;;;;;7374883;19;20022;-58
2023/11/27 04:45:50;;;;;;;33.30;24.25;;;4.60;99.90;;;;;;7372245;19;20372;-58
2023/11/27 04:48:16;;;;;;;34.03;25.50;;;4.60;99.90;;;;;;7372644;19;20031;-57
2023/11/27 04:50:43;;;;;;;32.95;25.27;;;4.60;99.90;;;;;;7371597;19;20051;-58
2023/11/27 04:53:10;;;;;;;35.00;25.15;;;4.60;99.90;;;;;;7369842;19;20118;-58
2023/11/27 04:55:37;;;;;;;32.17;22.88;;;4.60;99.90;;;;;;7370528;19;20547;-58
2023/11/27 04:58:03;;;;;;;30.98;25.55;;;4.60;99.90;;;;;;7370712;19;20074;-58
2023/11/27 05:00:29;;;;;;;29.88;22.85;;;4.60;99.90;;;;;;7370475;19;20029;-58
2023/11/27 05:02:56;;;;;;;28.25;21.88;;;4.60;99.90;;;;;;7369200;19;20094;-58
2023/11/27 05:05:22;;;;;;;30.90;23.98;;;4.60;99.90;;;;;;7373955;19;20809;-58
2023/11/27 05:07:49;;;;;;;33.95;24.60;;;4.60;99.90;;;;;;7369989;19;20014;-59
2023/11/27 05:10:15;;;;;;;29.25;20.33;;;4.60;99.90;;;;;;7376610;19;20868;-59
2023/11/27 05:12:42;;;;;;;29.90;22.20;;;4.60;99.90;;;;;;7371315;19;20120;-59
2023/11/27 05:15:09;;;;;;;32.55;21.77;;;4.60;99.90;;;;;;7375572;19;20133;-59
2023/11/27 05:17:35;;;;;;;31.05;23.00;;;4.60;99.90;;;;;;7373187;19;20017;-59
2023/11/27 05:20:03;;;;;;;29.58;22.63;;;4.60;99.90;;;;;;7372551;19;20050;-59
2023/11/27 05:22:29;;;;;;;24.65;17.98;;;4.60;99.90;;;;;;7369552;19;20059;-59
2023/11/27 05:24:55;;;;;;;28.10;20.75;;;4.60;99.90;;;;;;7367833;19;21247;-59
2023/11/27 05:27:23;;;;;;;28.50;21.70;;;4.60;99.90;;;;;;7373034;19;20444;-58
2023/11/27 05:29:49;;;;;;;32.50;23.25;;;4.60;99.90;;;;;;7374004;19;20042;-58
2023/11/27 05:32:16;;;;;;;27.13;19.17;;;4.60;99.90;;;;;;7371933;19;20029;-59
2023/11/27 05:34:43;;;;;;;22.10;17.10;;;4.60;99.90;;;;;;7369614;19;20470;-58
2023/11/27 05:37:09;;;;;;;27.75;21.05;;;4.60;99.90;;;;;;7372364;19;20023;-58
2023/11/27 05:39:36;;;;;;;27.92;21.83;;;4.60;99.90;;;;;;7371202;19;20078;-59
2023/11/27 05:42:03;;;;;;;25.98;20.80;;;4.60;99.90;;;;;;7369066;19;20026;-59
2023/11/27 05:44:29;;;;;;;26.48;19.48;;;4.60;99.90;;;;;;7371478;19;20025;-59
2023/11/27 05:46:56;;;;;;;29.05;19.60;;;4.60;99.90;;;;;;7368379;19;20078;-59
2023/11/27 05:49:22;;;;;;;30.15;21.17;;;4.60;99.90;;;;;;7373739;19;20018;-58
2023/11/27 05:51:48;;;;;;;31.90;23.27;;;4.60;99.90;;;;;;7369466;19;20078;-59
2023/11/27 05:54:14;;;;;;;27.83;21.88;;;4.60;99.90;;;;;;7374235;19;20855;-60
2023/11/27 05:56:41;;;;;;;26.00;21.17;;;4.60;99.90;;;;;;7373342;19;20018;-60
2023/11/27 05:59:08;;;;;;;33.75;23.75;;;4.60;99.90;;;;;;7371751;19;20029;-60
2023/11/27 06:01:35;;;;;;;28.05;20.88;;;4.60;99.90;;;;;;7368027;19;20014;-59
2023/11/27 06:04:01;;;;;;;28.90;22.83;;;4.60;99.90;;;;;;7372170;19;20581;-59
2023/11/27 06:06:27;;;;;;;30.55;23.65;;;4.60;99.90;;;;;;7369148;19;20524;-59
2023/11/27 06:08:56;;;;;;;25.83;19.35;;;4.60;99.90;;;;;;7370510;19;20054;-59
2023/11/27 06:11:22;;;;;;;33.17;24.00;;;4.60;99.90;;;;;;7373999;19;20025;-59
2023/11/27 06:13:49;;;;;;;31.50;23.02;;;4.60;99.90;;;;;;7372076;19;20018;-59
2023/11/27 06:16:16;;;;;;;31.17;21.38;;;4.60;99.90;;;;;;7371954;19;20019;-59
2023/11/27 06:18:42;;;;;;;29.58;22.20;;;4.60;99.90;;;;;;7376411;19;20029;-59
2023/11/27 06:21:11;;;;;;;35.50;22.80;;;4.50;99.90;;;;;;7380160;19;20387;-60
2023/11/27 06:23:40;;;;;;;32.28;20.98;;;4.60;99.90;;;;;;7379084;19;20015;-59
2023/11/27 06:26:12;;;;;;;25.90;20.17;;;4.50;99.90;;;;;;7378939;19;20473;-60
2023/11/27 06:28:38;;;;;;;33.20;22.98;;;4.50;99.90;;;;;;7380195;19;20848;-59
2023/11/27 06:31:05;;;;;;;30.30;25.23;;;4.50;99.90;;;;;;7376703;19;20843;-59
2023/11/27 06:33:31;;;;;;;30.80;22.92;;;4.50;99.90;;;;;;7376834;19;20022;-59
2023/11/27 06:35:57;;;;;;;35.28;23.67;;;4.50;99.90;;;;;;7377563;19;20014;-59
2023/11/27 06:38:24;;;;;;;33.75;24.27;;;4.50;99.90;;;;;;7374915;19;20872;-59
2023/11/27 06:40:50;;;;;;;30.80;24.73;;;4.50;99.90;;;;;;7376350;19;20023;-59
2023/11/27 06:43:17;;;;;;;34.40;25.27;;;4.50;99.90;;;;;;7375440;19;20826;-58
2023/11/27 06:45:43;;;;;;;29.17;20.85;;;4.50;99.90;;;;;;7376082;19;20054;-59
2023/11/27 06:48:09;;;;;;;36.03;25.20;;;4.50;99.90;;;;;;7373975;19;20599;-58
2023/11/27 06:50:35;;;;;;;31.15;23.75;;;4.50;99.90;;;;;;7378048;19;20663;-59
2023/11/27 06:53:02;;;;;;;32.03;23.63;;;4.50;99.90;;;;;;7373683;19;20085;-58
2023/11/27 06:55:29;;;;;;;36.50;24.50;;;4.50;99.90;;;;;;7379271;19;20063;-58
2023/11/27 06:57:55;;;;;;;33.97;23.58;;;4.50;99.90;;;;;;7376214;19;20461;-58
2023/11/27 07:00:22;;;;;;;36.80;25.98;;;4.50;99.90;;;;;;7377582;19;20015;-58
2023/11/27 07:02:48;;;;;;;35.25;22.73;;;4.50;99.90;;;;;;7375497;19;20054;-58
2023/11/27 07:05:15;;;;;;;35.03;26.80;;;4.50;99.90;;;;;;7377448;19;20014;-57
2023/11/27 07:07:41;;;;;;;39.80;26.33;;;4.50;99.90;;;;;;7377344;19;20022;-58
2023/11/27 07:10:08;;;;;;;39.80;27.13;;;4.50;99.90;;;;;;7376686;19;20025;-59
2023/11/27 07:12:35;;;;;;;37.00;26.98;;;4.60;99.90;;;;;;7372558;19;21440;-58
2023/11/27 07:15:03;;;;;;;40.90;27.25;;;4.60;99.90;;;;;;7370489;19;20620;-59
2023/11/27 07:17:29;;;;;;;35.30;25.10;;;4.50;99.90;;;;;;7365639;19;20052;-58
2023/11/27 07:19:55;;;;;;;41.25;28.48;;;4.50;99.90;;;;;;7373783;19;20022;-58
2023/11/27 07:22:22;;;;;;;32.60;25.13;;;4.50;99.90;;;;;;7372027;19;20766;-59
2023/11/27 07:24:50;;;;;;;38.92;26.40;;;4.50;99.90;;;;;;7372130;19;20017;-58
2023/11/27 07:27:17;;;;;;;39.33;27.83;;;4.50;99.90;;;;;;7371827;19;20026;-58
2023/11/27 07:29:43;;;;;;;34.63;25.90;;;4.50;99.90;;;;;;7372907;19;20074;-58
2023/11/27 07:32:09;;;;;;;35.50;25.25;;;4.50;99.90;;;;;;7377312;19;20035;-58
2023/11/27 07:34:36;;;;;;;38.17;26.85;;;4.40;99.90;;;;;;7373149;19;20026;-59
2023/11/27 07:37:02;;;;;;;33.55;23.75;;;4.50;99.90;;;;;;7376551;19;20011;-58
2023/11/27 07:39:28;;;;;;;35.13;24.98;;;4.50;99.90;;;;;;7373663;19;20014;-58
2023/11/27 07:41:54;;;;;;;32.65;23.45;;;4.50;99.90;;;;;;7375373;19;20050;-58
2023/11/27 07:44:25;;;;;;;26.77;19.38;;;4.40;99.90;;;;;;7373799;19;20041;-59
2023/11/27 07:46:51;;;;;;;27.13;21.30;;;4.40;99.90;;;;;;7370456;19;20022;-57
2023/11/27 07:49:19;;;;;;;25.80;20.27;;;4.40;99.90;;;;;;7376363;19;20758;-58
2023/11/27 07:51:45;;;;;;;28.80;21.67;;;4.40;99.90;;;;;;7371545;19;20097;-58
2023/11/27 07:54:14;;;;;;;26.73;20.38;;;4.40;99.90;;;;;;7373569;19;20022;-58
2023/11/27 07:56:40;;;;;;;24.45;19.85;;;4.50;99.90;;;;;;7375292;19;20037;-58
2023/11/27 07:59:06;;;;;;;26.55;20.55;;;4.40;99.90;;;;;;7370363;19;20023;-61
2023/11/27 08:01:34;;;;;;;26.38;20.58;;;4.40;99.90;;;;;;7375930;19;20014;-58
2023/11/27 08:04:03;;;;;;;26.25;20.05;;;4.40;99.90;;;;;;7372849;19;20809;-59
2023/11/27 08:06:29;;;;;;;23.75;19.35;;;4.40;99.90;;;;;;7375672;19;20529;-59
2023/11/27 08:08:57;;;;;;;27.23;20.17;;;4.40;99.90;;;;;;7372641;19;20497;-58
2023/11/27 08:11:32;;;;;;;23.23;18.42;;;4.40;99.90;;;;;;7376919;19;20026;-58
2023/11/27 08:14:03;;;;;;;22.45;18.20;;;4.40;99.90;;;;;;7370853;19;20022;-59
2023/11/27 08:16:30;;;;;;;31.10;17.75;;;4.40;99.90;;;;;;7375533;19;20018;-58
2023/11/27 08:18:56;;;;;;;23.58;18.23;;;4.40;99.90;;;;;;7375047;19;20980;-58
2023/11/27 08:21:24;;;;;;;23.90;17.88;;;4.40;99.90;;;;;;7372657;19;20018;-59
2023/11/27 08:23:51;;;;;;;22.20;17.38;;;4.40;99.90;;;;;;7374517;19;20011;-59
2023/11/27 08:26:17;;;;;;;22.20;17.48;;;4.40;99.90;;;;;;7369737;19;20019;-59
2023/11/27 08:28:44;;;;;;;24.75;17.45;;;4.40;99.90;;;;;;7376026;19;20086;-59
2023/11/27 08:31:10;;;;;;;19.80;16.23;;;4.40;99.90;;;;;;7374852;19;20094;-59
2023/11/27 08:33:37;;;;;;;20.35;16.30;;;4.40;99.90;;;;;;7377158;19;20024;-59
2023/11/27 08:36:03;;;;;;;21.83;16.38;;;4.40;99.90;;;;;;7374250;19;20022;-59
2023/11/27 08:38:30;;;;;;;22.45;16.33;;;4.30;99.90;;;;;;7373897;19;20351;-60
2023/11/27 08:40:57;;;;;;;24.52;17.13;;;4.40;99.90;;;;;;7373990;19;20011;-59
2023/11/27 08:43:25;;;;;;;20.23;15.88;;;4.40;99.90;;;;;;7370320;19;20039;-59
2023/11/27 08:45:51;;;;;;;18.42;15.93;;;4.40;99.90;;;;;;7369685;19;20120;-59
2023/11/27 08:48:17;;;;;;;19.30;14.98;;;4.40;99.90;;;;;;7375152;19;20014;-58
2023/11/27 08:50:44;;;;;;;22.90;15.82;;;4.40;99.90;;;;;;7375433;19;20015;-59
2023/11/27 08:53:10;;;;;;;23.17;16.05;;;4.40;99.90;;;;;;7372872;19;20014;-59
2023/11/27 08:55:36;;;;;;;21.45;17.80;;;4.40;99.90;;;;;;7371906;19;20021;-59
2023/11/27 08:58:04;;;;;;;22.35;17.13;;;4.40;99.90;;;;;;7371676;19;20019;-58
2023/11/27 09:00:51;;;;;;;24.92;18.90;;;4.40;99.90;;;;;;7373643;19;20029;-59
2023/11/27 09:03:18;;;;;;;28.73;20.95;;;4.40;99.90;;;;;;7369502;19;20837;-58
2023/11/27 09:05:46;;;;;;;25.55;20.65;;;4.40;99.90;;;;;;7374359;19;20655;-59
2023/11/27 09:08:13;;;;;;;31.80;22.65;;;4.40;99.90;;;;;;7371576;19;20021;-58
2023/11/27 09:10:40;;;;;;;30.05;22.55;;;4.40;99.90;;;;;;7375431;19;20018;-59
2023/11/27 09:13:09;;;;;;;28.92;22.00;;;4.40;99.90;;;;;;7369540;19;20097;-59
2023/11/27 09:15:36;;;;;;;32.78;25.05;;;4.40;99.90;;;;;;7372480;19;20501;-58
2023/11/27 09:18:06;;;;;;;35.00;24.20;;;4.40;99.90;;;;;;7370926;19;20018;-58
2023/11/27 09:20:32;;;;;;;26.92;20.30;;;4.40;99.90;;;;;;7373866;19;20488;-58
2023/11/27 09:23:00;;;;;;;31.27;24.35;;;4.40;99.90;;;;;;7371470;19;20026;-58
2023/11/27 09:25:46;;;;;;;31.92;25.15;;;4.40;99.90;;;;;;7369821;19;21652;-58
2023/11/27 09:28:12;;;;;;;31.05;25.10;;;4.40;99.90;;;;;;7372951;19;20022;-58
2023/11/27 09:30:39;;;;;;;32.92;25.83;;;4.40;99.90;;;;;;7370106;19;20026;-58
2023/11/27 09:33:05;;;;;;;31.95;24.98;;;4.40;99.90;;;;;;7370260;19;20131;-58
2023/11/27 09:35:31;;;;;;;33.42;24.08;;;4.40;99.90;;;;;;7373347;19;20381;-58
2023/11/27 09:37:59;;;;;;;35.90;25.90;;;4.30;99.90;;;;;;7373049;19;20011;-59
2023/11/27 09:40:26;;;;;;;32.42;25.65;;;4.30;99.90;;;;;;7372651;19;20894;-58
2023/11/27 09:42:53;;;;;;;37.45;27.65;;;4.30;99.90;;;;;;7374021;19;20010;-59
2023/11/27 09:45:19;;;;;;;31.40;25.77;;;4.30;99.90;;;;;;7368481;19;20010;-59
2023/11/27 09:47:49;;;;;;;38.40;29.20;;;4.40;99.90;;;;;;7372680;19;20023;-60
2023/11/27 09:50:18;;;;;;;37.20;27.83;;;4.30;99.90;;;;;;7373115;19;20048;-59
2023/11/27 09:53:04;;;;;;;35.72;25.77;;;4.40;99.90;;;;;;7371298;19;20014;-59
2023/11/27 09:55:40;;;;;;;37.20;25.85;;;4.30;99.90;;;;;;7379270;19;20014;-59
2023/11/27 09:58:08;;;;;;;40.60;29.83;;;4.30;99.90;;;;;;7378808;19;20837;-59
2023/11/27 10:00:35;;;;;;;33.60;27.60;;;4.40;99.90;;;;;;7380104;19;20036;-59
2023/11/27 10:03:02;;;;;;;35.67;27.52;;;4.30;99.90;;;;;;7380472;19;20055;-59
2023/11/27 10:05:30;;;;;;;24.90;21.00;;;4.30;99.90;;;;;;7373717;19;20340;-59
2023/11/27 10:07:57;;;;;;;34.17;25.15;;;4.30;99.90;;;;;;7379516;19;20478;-59
2023/11/27 10:10:26;;;;;;;29.92;22.30;;;4.20;99.90;;;;;;7377289;19;20074;-59
2023/11/27 10:13:04;;;;;;;27.33;21.92;;;4.20;99.90;;;;;;7375325;19;20011;-59
2023/11/27 10:15:30;;;;;;;31.05;22.13;;;4.10;99.90;;;;;;7379868;19;20610;-59
2023/11/27 10:17:59;;;;;;;24.65;19.73;;;4.10;99.90;;;;;;7380051;19;20014;-59
2023/11/27 10:20:26;;;;;;;27.23;20.63;;;4.00;99.90;;;;;;7376580;19;20030;-60
2023/11/27 10:22:55;;;;;;;24.15;17.35;;;4.00;99.90;;;;;;7377890;19;20268;-59
2023/11/27 10:25:23;;;;;;;23.83;18.48;;;4.00;99.90;;;;;;7376094;19;20049;-60
2023/11/27 10:27:57;;;;;;;24.30;18.00;;;4.00;99.90;;;;;;7378323;19;20051;-59
2023/11/27 10:30:25;;;;;;;25.45;19.90;;;3.90;99.90;;;;;;7378755;19;20649;-60
2023/11/27 10:33:02;;;;;;;21.83;18.38;;;4.00;99.90;;;;;;7379306;19;20018;-60
2023/11/27 10:35:32;;;;;;;24.15;19.35;;;3.90;99.90;;;;;;7378216;19;20018;-59
2023/11/27 10:37:58;;;;;;;21.25;17.42;;;3.90;99.90;;;;;;7377042;19;20512;-59
2023/11/27 10:40:27;;;;;;;20.48;17.38;;;3.80;99.90;;;;;;7379300;19;20014;-59
2023/11/27 10:43:00;;;;;;;24.60;20.25;;;3.80;99.90;;;;;;7379559;19;20030;-60
2023/11/27 10:45:28;;;;;;;21.77;18.33;;;3.90;99.90;;;;;;7373761;19;20018;-59
2023/11/27 10:47:56;;;;;;;22.45;17.05;;;3.80;99.90;;;;;;7375971;19;20359;-59
2023/11/27 10:50:25;;;;;;;20.88;16.75;;;3.80;99.90;;;;;;7376419;19;20014;-60
2023/11/27 10:52:52;;;;;;;14.20;11.82;;;3.80;99.90;;;;;;7378594;19;20015;-59
2023/11/27 10:55:19;;;;;;;20.90;17.23;;;3.70;99.90;;;;;;7374964;19;20017;-59
2023/11/27 10:57:48;;;;;;;20.17;17.88;;;3.70;99.90;;;;;;7377721;19;20052;-59
2023/11/27 11:00:22;;;;;;;19.02;16.95;;;3.70;99.90;;;;;;7373232;19;20025;-60
2023/11/27 11:02:52;;;;;;;16.77;14.98;;;3.60;99.90;;;;;;7376395;19;20081;-59
2023/11/27 11:05:26;;;;;;;19.25;17.25;;;3.60;99.90;;;;;;7370210;19;20018;-60
2023/11/27 11:07:55;;;;;;;17.08;14.75;;;3.60;99.90;;;;;;7377406;19;20018;-60
2023/11/27 11:10:26;;;;;;;17.65;14.55;;;3.60;99.90;;;;;;7379247;19;20014;-60
2023/11/27 11:13:07;;;;;;;18.30;16.35;;;3.60;99.90;;;;;;7379195;19;20528;-60
2023/11/27 11:16:00;;;;;;;14.43;12.77;;;3.60;99.90;;;;;;7376986;19;20469;-60
2023/11/27 11:18:48;;;;;;;16.48;13.95;;;3.60;99.90;;;;;;7373823;19;20018;-60
2023/11/27 11:21:26;;;;;;;17.23;15.40;;;3.60;99.90;;;;;;7375242;19;20049;-58
2023/11/27 11:24:35;;;;;;;15.55;13.75;;;3.60;99.90;;;;;;7377097;19;20014;-57
2023/11/27 11:27:27;;;;;;;15.65;13.90;;;3.60;99.90;;;;;;7372202;19;20047;-59
2023/11/27 11:29:58;;;;;;;15.65;14.07;;;3.60;99.90;;;;;;7373635;19;20039;-59
2023/11/27 11:32:28;;;;;;;15.90;13.90;;;3.60;99.90;;;;;;7376873;19;20529;-59
2023/11/27 11:34:58;;;;;;;16.30;14.52;;;3.60;99.90;;;;;;7373914;19;20826;-59
2023/11/27 11:37:25;;;;;;;13.98;12.52;;;3.60;99.90;;;;;;7375209;19;20007;-59
2023/11/27 11:39:53;;;;;;;14.60;12.65;;;3.60;99.90;;;;;;7378081;19;20018;-60
2023/11/27 11:42:26;;;;;;;12.00;10.27;;;3.60;99.90;;;;;;7377629;19;20695;-59
2023/11/27 11:45:24;;;;;;;11.80;10.52;;;3.50;99.90;;;;;;7376033;19;20019;-59
2023/11/27 11:47:57;;;;;;;11.32;10.13;;;3.50;99.90;;;;;;7375644;19;20017;-59
2023/11/27 11:50:40;;;;;;;10.40;8.93;;;3.50;99.90;;;;;;7376477;19;20457;-59
2023/11/27 11:53:39;;;;;;;13.77;10.63;;;3.50;99.90;;;;;;7370034;19;20013;-59
2023/11/27 11:56:19;;;;;;;9.95;8.32;;;3.60;99.90;;;;;;7377034;19;20049;-59
2023/11/27 11:58:49;;;;;;;9.80;8.75;;;3.50;99.90;;;;;;7377395;19;20025;-59
2023/11/27 12:01:15;;;;;;;11.07;10.05;;;3.50;99.90;;;;;;7373873;19;20043;-59
2023/11/27 12:03:46;;;;;;;12.27;10.55;;;3.50;99.90;;;;;;7377234;19;20082;-59
2023/11/27 12:06:16;;;;;;;10.80;9.70;;;3.50;99.90;;;;;;7370886;19;20701;-59
2023/11/27 12:08:45;;;;;;;11.23;9.82;;;3.50;99.90;;;;;;7377643;19;20021;-60
2023/11/27 12:11:14;;;;;;;10.55;9.43;;;3.50;99.90;;;;;;7373981;19;20021;-59
2023/11/27 12:13:43;;;;;;;11.85;9.70;;;3.50;99.90;;;;;;7379120;19;20022;-59
2023/11/27 12:16:11;;;;;;;10.57;8.90;;;3.50;99.90;;;;;;7371692;19;21006;-58
2023/11/27 12:18:44;;;;;;;8.18;7.25;;;3.50;99.90;;;;;;7376481;19;20010;-59
2023/11/27 12:21:22;;;;;;;10.45;9.35;;;3.50;99.90;;;;;;7372402;19;20106;-59
2023/11/27 12:23:50;;;;;;;11.00;9.77;;;3.40;99.90;;;;;;7371951;19;20113;-59
2023/11/27 12:26:23;;;;;;;11.52;10.32;;;3.40;99.90;;;;;;7371701;19;20127;-59
2023/11/27 12:28:50;;;;;;;11.93;10.73;;;3.50;99.90;;;;;;7373373;19;20018;-58
2023/11/27 12:31:17;;;;;;;11.85;10.15;;;3.50;99.90;;;;;;7374105;19;20019;-59
2023/11/27 12:33:49;;;;;;;10.88;9.30;;;3.50;99.90;;;;;;7372282;19;20006;-58
2023/11/27 12:36:20;;;;;;;;;;;3.50;99.90;;;;;;7373795;19;20593;-59
2023/11/27 12:38:53;;;;;;;13.73;11.27;;;3.50;99.90;;;;;;7372546;19;19933;-61
2023/11/27 12:41:30;;;;;;;14.65;12.65;;;3.40;99.90;;;;;;7373853;19;20351;-59
2023/11/27 12:44:15;;;;;;;13.05;11.75;;;3.40;99.90;;;;;;7375958;19;20034;-59